Time;durP1;ratioP1;P1;durP2;ratioP2;P2;SDS_P1;SDS_P2;PMS_P1;PMS_P2;Temp;Humidity;BMP_temperature;BMP_pressure;BME280_temperature;BME280_humidity;BME280_pressure;Samples;Min_cycle;Max_cycle;Signal;HPM_P1;HPM_P2
2022/12/10 00:01:45;;;;;;;12.07;3.97;;;;;;;10.46;75.92;98605.41;5014098;28;19932;-78
2022/12/10 00:04:14;;;;;;;9.10;4.10;;;;;;;10.45;75.98;98609.03;5014065;28;20392;-78
2022/12/10 00:06:43;;;;;;;7.38;3.65;;;;;;;10.44;76.50;98607.34;4996362;28;20105;-77
2022/12/10 00:09:13;;;;;;;6.85;3.80;;;;;;;10.45;76.07;98614.38;5013737;28;20381;-77
2022/12/10 00:11:42;;;;;;;7.95;3.75;;;;;;;10.45;76.27;98603.72;4996517;28;20108;-77
2022/12/10 00:14:11;;;;;;;5.78;3.40;;;;;;;10.46;76.60;98605.41;5013858;28;20042;-76
2022/12/10 00:16:40;;;;;;;8.10;3.65;;;;;;;10.45;76.41;98609.03;5013883;28;20042;-76
2022/12/10 00:19:11;;;;;;;8.48;4.00;;;;;;;10.42;76.04;98601.28;5013865;28;20151;-77
2022/12/10 00:21:39;;;;;;;7.13;3.53;;;;;;;10.43;76.26;98616.34;5014297;28;20042;-77
2022/12/10 00:24:07;;;;;;;6.80;3.65;;;;;;;10.42;76.23;98614.63;5013811;28;20072;-77
2022/12/10 00:26:38;;;;;;;7.22;3.50;;;;;;;10.47;76.40;98631.06;5013808;28;20046;-76
2022/12/10 00:29:08;;;;;;;6.57;3.80;;;;;;;10.45;76.16;98630.38;4996397;28;20049;-77
2022/12/10 00:31:38;;;;;;;7.15;3.70;;;;;;;10.45;76.13;98630.38;4996297;28;20132;-76
2022/12/10 00:34:08;;;;;;;10.63;3.88;;;;;;;10.47;76.27;98636.41;4996263;28;20054;-77
2022/12/10 00:36:42;;;;;;;7.72;3.58;;;;;;;10.46;76.26;98638.22;4996329;28;20097;-76
2022/12/10 00:39:12;;;;;;;6.45;4.07;;;;;;;10.46;76.40;98643.56;5013948;28;20416;-77
2022/12/10 00:41:41;;;;;;;8.88;3.85;;;;;;;10.49;76.17;98642.44;5014405;28;20057;-76
2022/12/10 00:44:09;;;;;;;6.78;3.55;;;;;;;10.46;76.34;98640.91;5013546;28;20423;-77
2022/12/10 00:46:37;;;;;;;7.18;3.83;;;;;;;10.47;76.59;98655.06;5013502;28;20046;-77
2022/12/10 00:49:05;;;;;;;7.70;3.33;;;;;;;10.47;76.45;98660.41;5013230;28;20507;-77
2022/12/10 00:51:33;;;;;;;6.45;3.13;;;;;;;10.49;76.18;98658.44;5013590;28;20065;-77
2022/12/10 00:54:03;;;;;;;5.65;3.45;;;;;;;10.50;76.44;98660.13;4995870;28;20050;-77
2022/12/10 00:56:33;;;;;;;8.13;3.50;;;;;;;10.48;76.26;98654.94;4996002;28;20050;-77
2022/12/10 00:59:02;;;;;;;6.03;3.67;;;;;;;10.49;76.43;98663.78;5015001;28;20101;-75
2022/12/10 01:01:32;;;;;;;7.55;3.60;;;;;;;10.48;76.63;98660.25;5017103;28;20115;-76
2022/12/10 01:04:03;;;;;;;6.70;3.55;;;;;;;10.47;76.55;98668.41;5017295;28;20551;-77
2022/12/10 01:06:34;;;;;;;6.78;3.47;;;;;;;10.48;76.53;98662.09;5016975;28;20038;-77
2022/12/10 01:09:06;;;;;;;5.53;3.33;;;;;;;10.47;76.52;98661.25;5017147;28;20045;-77
2022/12/10 01:11:38;;;;;;;6.40;3.53;;;;;;;10.48;77.02;98657.59;5017650;28;20046;-76
2022/12/10 01:14:07;;;;;;;8.15;3.80;;;;;;;10.49;76.92;98658.44;5016689;28;20318;-77
2022/12/10 01:16:35;;;;;;;8.82;4.10;;;;;;;10.49;76.75;98663.78;5017042;28;20486;-77
2022/12/10 01:19:05;;;;;;;5.47;3.40;;;;;;;10.48;77.08;98664.75;5016940;28;20042;-77
2022/12/10 01:21:33;;;;;;;6.55;3.40;;;;;;;10.49;76.59;98666.44;5016923;28;20504;-77
2022/12/10 01:24:03;;;;;;;8.02;3.65;;;;;;;10.49;76.67;98674.44;4999115;28;20138;-75
2022/12/10 01:26:34;;;;;;;6.53;3.25;;;;;;;10.49;76.61;98675.28;5017164;28;20484;-74
2022/12/10 01:29:03;;;;;;;7.68;3.30;;;;;;;10.48;76.68;98667.41;5016796;28;20046;-75
2022/12/10 01:31:34;;;;;;;8.00;3.70;;;;;;;10.51;76.62;98673.31;5016988;28;20119;-75
2022/12/10 01:34:04;;;;;;;5.95;3.08;;;;;;;10.51;76.67;98661.81;5016949;28;20125;-75
2022/12/10 01:36:34;;;;;;;6.57;3.88;;;;;;;10.51;76.56;98661.81;5016570;28;20050;-74
2022/12/10 01:39:06;;;;;;;7.57;3.45;;;;;;;10.50;76.84;98673.47;5016813;28;20042;-75
2022/12/10 01:41:37;;;;;;;5.90;3.42;;;;;;;10.51;76.81;98662.66;5016528;28;20065;-75
2022/12/10 01:44:44;;;;;;;7.68;3.53;;;;;;;10.50;76.95;98655.63;5016722;28;20037;-76
2022/12/10 01:47:14;;;;;;;5.80;3.42;;;;;;;10.51;76.82;98661.81;5015937;28;20627;-75
2022/12/10 01:49:42;;;;;;;5.32;3.30;;;;;;;10.53;76.70;98667.88;5016656;28;20052;-76
2022/12/10 01:52:12;;;;;;;6.05;3.42;;;;;;;10.50;76.78;98658.31;5016350;28;20057;-76
2022/12/10 01:54:43;;;;;;;6.15;3.17;;;;;;;10.50;76.61;98666.31;5016322;28;20045;-76
2022/12/10 01:57:15;;;;;;;6.40;3.45;;;;;;;10.49;76.72;98663.78;5016228;28;20141;-77
2022/12/10 01:59:46;;;;;;;6.88;3.78;;;;;;;10.52;76.71;98675.03;5016450;28;20101;-75
2022/12/10 02:02:25;;;;;;;6.18;3.85;;;;;;;10.54;76.48;98685.56;5016266;28;20440;-77
2022/12/10 02:05:05;;;;;;;6.78;3.50;;;;;;;10.53;76.42;98691.88;4998635;28;20567;-76
2022/12/10 02:07:44;;;;;;;5.40;3.38;;;;;;;10.53;76.78;98697.22;5016040;28;20046;-76
2022/12/10 02:10:25;;;;;;;6.57;3.55;;;;;;;10.52;76.83;98698.19;5015461;28;20046;-76
2022/12/10 02:12:58;;;;;;;6.38;3.72;;;;;;;10.52;76.85;98700.84;5016024;28;20133;-77
2022/12/10 02:15:30;;;;;;;5.90;3.58;;;;;;;10.52;76.92;98696.38;5016111;28;20104;-76
2022/12/10 02:18:08;;;;;;;6.35;3.78;;;;;;;10.52;76.77;98695.53;5015982;28;20077;-76
2022/12/10 02:20:40;;;;;;;8.55;3.42;;;;;;;10.52;76.96;98695.53;5015511;28;20046;-76
2022/12/10 02:23:13;;;;;;;8.18;3.70;;;;;;;10.52;76.82;98701.69;5016235;28;20044;-76
2022/12/10 02:25:47;;;;;;;5.87;3.37;;;;;;;10.53;76.83;98697.22;5015728;28;20046;-76
2022/12/10 02:28:26;;;;;;;5.60;3.55;;;;;;;10.53;77.04;98698.06;5016210;28;20057;-76
2022/12/10 02:30:59;;;;;;;7.07;3.60;;;;;;;10.51;76.77;98699.13;5015698;28;20054;-76
2022/12/10 02:33:29;;;;;;;7.18;3.70;;;;;;;10.51;76.99;98691.13;5015517;28;20510;-77
2022/12/10 02:35:59;;;;;;;8.05;3.70;;;;;;;10.52;77.15;98699.03;5015889;28;20417;-76
2022/12/10 02:38:31;;;;;;;7.80;3.30;;;;;;;10.53;76.95;98706.06;5015902;28;20058;-76
2022/12/10 02:41:03;;;;;;;6.05;3.95;;;;;;;10.51;77.33;98702.66;5015638;28;20053;-76
2022/12/10 02:43:31;;;;;;;5.30;3.30;;;;;;;10.53;77.18;98694.53;5015706;28;20046;-76
2022/12/10 02:46:04;;;;;;;5.60;3.22;;;;;;;10.52;76.94;98696.38;5015537;28;20046;-76
2022/12/10 02:48:34;;;;;;;8.38;4.05;;;;;;;10.53;76.87;98702.53;5015278;28;20054;-76
2022/12/10 02:51:02;;;;;;;7.53;3.40;;;;;;;10.55;76.82;98689.91;5015147;28;20455;-76
2022/12/10 02:53:30;;;;;;;6.70;3.60;;;;;;;10.55;76.89;98689.91;5015258;28;20073;-77
2022/12/10 02:56:14;;;;;;;7.15;3.70;;;;;;;10.55;76.89;98689.91;5014709;28;20124;-76
2022/12/10 02:58:50;;;;;;;5.70;3.30;;;;;;;10.56;77.31;98688.94;5015253;28;20046;-76
2022/12/10 03:01:27;;;;;;;5.22;3.22;;;;;;;10.55;77.16;98696.09;5015457;28;20042;-76
2022/12/10 03:04:01;;;;;;;5.10;2.90;;;;;;;10.55;77.09;98689.91;5014706;28;20053;-76
2022/12/10 03:06:35;;;;;;;5.75;2.97;;;;;;;10.53;77.22;98689.22;4997542;28;20053;-76
2022/12/10 03:09:07;;;;;;;5.55;3.15;;;;;;;10.54;77.19;98697.06;5015274;28;20050;-76
2022/12/10 03:11:39;;;;;;;5.32;3.22;;;;;;;10.55;77.34;98698.75;5015262;28;20049;-76
2022/12/10 03:14:14;;;;;;;5.43;3.03;;;;;;;10.56;77.05;98708.44;5015151;28;20042;-76
2022/12/10 03:16:47;;;;;;;5.35;3.20;;;;;;;10.54;76.99;98709.56;5014523;28;20054;-76
2022/12/10 03:19:19;;;;;;;7.13;3.63;;;;;;;10.54;76.97;98712.22;4997445;28;20050;-76
2022/12/10 03:21:49;;;;;;;5.57;2.90;;;;;;;10.54;77.17;98712.22;5014621;28;20846;-75
2022/12/10 03:24:18;;;;;;;4.90;3.10;;;;;;;10.50;77.27;98724.09;5014614;28;20042;-76
2022/12/10 03:26:49;;;;;;;4.97;2.85;;;;;;;10.50;77.19;98727.63;5014615;28;20088;-75
2022/12/10 03:29:22;;;;;;;5.35;3.40;;;;;;;10.52;77.22;98735.50;5014661;28;20116;-75
2022/12/10 03:31:53;;;;;;;6.80;3.20;;;;;;;10.50;77.36;98729.44;5014764;28;20131;-76
2022/12/10 03:34:23;;;;;;;5.95;3.20;;;;;;;10.51;77.42;98731.13;5015221;28;20388;-75
2022/12/10 03:36:52;;;;;;;4.55;3.10;;;;;;;10.50;77.55;98734.78;5014051;28;20061;-75
2022/12/10 03:39:20;;;;;;;5.93;3.13;;;;;;;10.50;77.25;98740.09;5014246;28;20041;-75
2022/12/10 03:41:48;;;;;;;5.22;3.20;;;;;;;10.49;77.51;98730.41;5013804;28;20050;-76
2022/12/10 03:44:28;;;;;;;4.80;2.90;;;;;;;10.50;77.54;98735.63;5014304;28;20056;-76
2022/12/10 03:46:57;;;;;;;5.20;3.17;;;;;;;10.50;77.60;98734.78;5014205;28;20454;-76
2022/12/10 03:49:26;;;;;;;4.53;2.85;;;;;;;10.53;77.53;98742.53;5014246;28;20042;-75
2022/12/10 03:51:54;;;;;;;4.63;2.78;;;;;;;10.53;77.31;98755.88;5014171;28;20447;-75
2022/12/10 03:54:22;;;;;;;6.10;3.40;;;;;;;10.54;77.27;98757.56;5013879;28;20543;-75
2022/12/10 03:56:50;;;;;;;5.82;3.00;;;;;;;10.54;77.43;98763.72;5013846;28;20038;-75
2022/12/10 03:59:19;;;;;;;6.15;3.35;;;;;;;10.52;77.33;98749.69;5013745;28;20081;-75
2022/12/10 04:01:48;;;;;;;4.88;2.80;;;;;;;10.53;77.59;98755.88;5014199;28;20120;-76
2022/12/10 04:04:17;;;;;;;5.32;3.00;;;;;;;10.53;77.53;98754.03;5014066;28;20080;-76
2022/12/10 04:06:45;;;;;;;5.90;3.30;;;;;;;10.52;77.69;98754.19;5014013;28;20392;-75
2022/12/10 04:09:15;;;;;;;6.25;3.63;;;;;;;10.52;77.56;98757.69;5014166;28;20048;-75
2022/12/10 04:11:44;;;;;;;5.15;3.00;;;;;;;10.52;77.72;98759.50;5014268;28;20457;-75
2022/12/10 04:16:59;;;;;;;6.93;3.45;;;;;;;10.50;77.70;98766.75;5014580;28;20049;-75
2022/12/10 04:19:29;;;;;;;5.70;3.17;;;;;;;10.49;77.55;98760.59;5014348;28;20056;-75
2022/12/10 04:27:30;;;;;;;5.35;3.22;;;;;;;10.48;77.81;98752.72;5014282;28;20108;-75
2022/12/10 04:29:59;;;;;;;5.57;2.97;;;;;;;10.49;77.66;98765.06;5013774;28;20141;-75
2022/12/10 04:32:29;;;;;;;5.57;3.15;;;;;;;10.50;77.55;98766.75;5013728;28;20042;-75
2022/12/10 04:34:59;;;;;;;5.15;3.00;;;;;;;10.50;77.42;98772.09;5016938;28;20377;-76
2022/12/10 04:37:28;;;;;;;5.22;3.28;;;;;;;10.51;77.73;98763.13;5017426;28;20064;-75
2022/12/10 04:39:56;;;;;;;7.22;3.30;;;;;;;10.50;77.59;98764.09;5017147;28;20042;-75
2022/12/10 04:42:24;;;;;;;5.60;3.40;;;;;;;10.47;77.75;98754.53;5018214;28;20058;-76
2022/12/10 04:44:52;;;;;;;5.03;3.00;;;;;;;10.48;77.74;98764.22;5017455;28;20042;-75
2022/12/10 04:47:21;;;;;;;6.43;3.42;;;;;;;10.48;77.70;98752.72;5017448;28;20052;-75
2022/12/10 04:49:49;;;;;;;5.65;3.28;;;;;;;10.47;77.76;98754.53;5017514;28;20128;-76
2022/12/10 04:52:18;;;;;;;6.15;3.30;;;;;;;10.48;77.75;98755.38;5017432;28;20099;-75
2022/12/10 04:54:46;;;;;;;5.72;3.40;;;;;;;10.48;77.67;98758.06;5017579;28;20049;-75
2022/12/10 04:57:14;;;;;;;6.05;3.20;;;;;;;10.49;77.71;98760.59;5017023;28;20056;-75
2022/12/10 04:59:43;;;;;;;6.95;3.13;;;;;;;10.49;77.53;98752.59;5017296;28;20048;-76
2022/12/10 05:02:11;;;;;;;5.97;3.42;;;;;;;10.47;77.68;98757.22;5017298;28;20608;-76
2022/12/10 05:04:39;;;;;;;7.80;3.90;;;;;;;10.48;77.83;98763.38;5017178;28;20077;-76
2022/12/10 05:07:07;;;;;;;5.30;3.13;;;;;;;10.47;77.86;98767.03;5017157;28;20034;-76
2022/12/10 05:09:38;;;;;;;6.13;3.55;;;;;;;10.46;78.08;98766.19;5017549;28;20045;-75
2022/12/10 05:12:07;;;;;;;6.50;3.50;;;;;;;10.46;77.75;98760.00;4999687;28;20050;-76
2022/12/10 05:14:35;;;;;;;6.25;3.53;;;;;;;10.47;77.74;98767.03;5017294;28;20058;-76
2022/12/10 05:17:03;;;;;;;7.22;4.05;;;;;;;10.48;77.63;98782.03;5016858;28;20049;-76
2022/12/10 05:19:31;;;;;;;6.07;3.78;;;;;;;10.49;78.02;98781.06;5016518;28;20049;-75
2022/12/10 05:24:46;;;;;;;7.78;4.30;;;;;;;10.47;77.66;98788.34;5016909;28;20049;-75
2022/12/10 05:27:14;;;;;;;7.38;4.15;;;;;;;10.47;77.71;98799.03;5016699;28;20084;-76
2022/12/10 05:29:44;;;;;;;6.50;3.85;;;;;;;10.47;77.72;98794.53;5016419;28;20046;-75
2022/12/10 05:32:12;;;;;;;6.50;3.88;;;;;;;10.45;77.72;98795.63;5016710;28;20050;-75
2022/12/10 05:34:40;;;;;;;6.53;4.20;;;;;;;10.45;77.75;98791.16;5016373;28;20505;-75
2022/12/10 05:37:08;;;;;;;7.25;3.80;;;;;;;10.43;77.76;98803.75;5017051;28;20077;-75
2022/12/10 05:39:37;;;;;;;6.20;3.83;;;;;;;10.43;77.99;98802.91;5016300;28;20044;-76
2022/12/10 05:42:07;;;;;;;7.45;4.15;;;;;;;10.40;78.14;98792.50;5016028;28;20061;-76
2022/12/10 05:44:35;;;;;;;7.10;3.50;;;;;;;10.41;78.01;98794.19;5016245;28;20403;-76
2022/12/10 05:47:03;;;;;;;7.28;4.40;;;;;;;10.42;77.99;98795.88;5016473;28;20048;-77
2022/12/10 05:49:31;;;;;;;7.85;4.50;;;;;;;10.42;78.07;98793.19;4998501;28;20441;-75
2022/12/10 05:52:00;;;;;;;6.85;4.15;;;;;;;10.43;78.03;98802.91;5016259;28;20081;-77
2022/12/10 05:54:28;;;;;;;6.97;4.03;;;;;;;10.42;78.16;98810.06;4998933;28;20060;-76
2022/12/10 05:56:56;;;;;;;7.60;4.28;;;;;;;10.41;78.30;98804.84;5016699;28;20042;-76
2022/12/10 05:59:26;;;;;;;6.32;4.18;;;;;;;10.43;78.08;98810.91;5016122;28;20046;-75
2022/12/10 06:01:54;;;;;;;7.70;4.72;;;;;;;10.42;78.25;98802.06;5016157;28;20104;-76
2022/12/10 06:04:22;;;;;;;6.22;4.20;;;;;;;10.42;78.18;98806.53;5016143;28;20405;-76
2022/12/10 06:06:50;;;;;;;6.40;4.45;;;;;;;10.43;78.10;98808.25;5015924;28;20069;-75
2022/12/10 06:09:18;;;;;;;7.15;4.35;;;;;;;10.40;78.25;98805.81;5016131;28;20054;-76
2022/12/10 06:11:47;;;;;;;6.45;4.10;;;;;;;10.42;78.15;98814.53;5016014;28;20046;-75
2022/12/10 06:14:15;;;;;;;7.18;4.47;;;;;;;10.39;78.08;98814.78;5015947;28;20049;-76
2022/12/10 06:16:44;;;;;;;6.78;4.00;;;;;;;10.40;78.25;98820.00;5015585;28;20108;-76
2022/12/10 06:19:12;;;;;;;6.78;4.40;;;;;;;10.40;78.07;98817.31;5015810;28;20085;-76
2022/12/10 06:21:40;;;;;;;7.00;4.70;;;;;;;10.41;78.14;98831.50;5015945;28;20050;-77
2022/12/10 06:24:09;;;;;;;7.43;4.55;;;;;;;10.40;78.30;98838.66;5016442;28;20058;-77
2022/12/10 06:26:37;;;;;;;7.65;4.55;;;;;;;10.40;78.19;98845.81;5015723;28;20046;-77
2022/12/10 06:29:05;;;;;;;7.18;4.18;;;;;;;10.40;78.24;98840.47;5015256;28;20551;-77
2022/12/10 06:31:33;;;;;;;6.80;4.45;;;;;;;10.38;78.12;98831.75;5015625;28;20061;-76
2022/12/10 06:34:03;;;;;;;8.05;4.47;;;;;;;10.40;78.02;98822.66;5016341;28;20050;-75
2022/12/10 06:36:31;;;;;;;7.35;4.43;;;;;;;10.39;78.31;98818.31;5015458;28;20120;-75
2022/12/10 06:38:59;;;;;;;6.95;4.40;;;;;;;10.39;78.24;98826.28;5015168;28;20054;-75
2022/12/10 06:41:27;;;;;;;6.25;4.28;;;;;;;10.38;78.03;98834.41;5015435;28;20134;-76
2022/12/10 06:43:58;;;;;;;6.32;4.32;;;;;;;10.39;78.11;98847.63;5015668;28;20088;-77
2022/12/10 06:46:28;;;;;;;7.18;4.45;;;;;;;10.39;78.18;98849.44;5015347;28;20073;-76
2022/12/10 06:48:56;;;;;;;7.53;4.93;;;;;;;10.38;77.95;98843.25;5015401;28;20046;-76
2022/12/10 06:51:26;;;;;;;6.30;4.18;;;;;;;10.37;78.15;98844.25;5011506;28;20046;-77
2022/12/10 06:53:54;;;;;;;7.07;4.65;;;;;;;10.38;77.96;98845.94;4995571;28;20486;-77
2022/12/10 06:56:23;;;;;;;6.60;4.30;;;;;;;10.36;78.23;98842.56;4994919;28;20080;-76
2022/12/10 06:58:51;;;;;;;6.50;4.13;;;;;;;10.34;78.12;98846.31;4995561;28;20046;-75
2022/12/10 07:01:21;;;;;;;6.80;4.50;;;;;;;10.36;78.38;98847.03;4995794;28;20484;-75
2022/12/10 07:03:51;;;;;;;7.65;4.90;;;;;;;10.34;78.22;98846.31;4995544;28;20133;-76
2022/12/10 07:06:20;;;;;;;7.28;4.75;;;;;;;10.35;78.17;98842.69;4995376;28;20125;-76
2022/12/10 07:08:50;;;;;;;6.95;4.45;;;;;;;10.35;78.25;98837.34;4977635;28;20047;-75
2022/12/10 07:11:22;;;;;;;7.60;4.57;;;;;;;10.32;78.21;98839.28;4995375;28;20042;-76
2022/12/10 07:13:51;;;;;;;7.45;4.60;;;;;;;10.31;78.21;98850.91;4977700;28;20054;-75
2022/12/10 07:16:21;;;;;;;7.47;4.80;;;;;;;10.33;78.16;98856.13;4994724;28;20097;-75
2022/12/10 07:18:50;;;;;;;7.70;4.93;;;;;;;10.27;78.27;98840.63;4995292;28;20078;-76
2022/12/10 07:21:21;;;;;;;7.20;4.68;;;;;;;10.32;78.16;98852.59;4995010;28;20053;-77
2022/12/10 07:23:54;;;;;;;8.05;5.10;;;;;;;10.32;78.14;98857.94;4995242;28;20116;-75
2022/12/10 07:26:23;;;;;;;7.80;5.03;;;;;;;10.32;78.15;98843.75;4996184;28;20054;-75
2022/12/10 07:28:51;;;;;;;8.77;5.40;;;;;;;10.35;78.12;98848.00;5012946;28;20489;-77
2022/12/10 07:31:22;;;;;;;7.05;4.72;;;;;;;10.33;78.38;98842.81;5014421;28;20077;-76
2022/12/10 07:33:52;;;;;;;8.55;4.90;;;;;;;10.32;78.16;98831.28;5014841;28;20392;-76
2022/12/10 07:36:22;;;;;;;8.65;5.40;;;;;;;10.30;78.15;98819.91;5014098;28;20496;-74
2022/12/10 07:38:52;;;;;;;7.28;4.85;;;;;;;10.32;78.14;98806.44;5014245;28;20042;-74
2022/12/10 07:41:22;;;;;;;7.15;4.90;;;;;;;10.30;78.10;98811.91;5014480;28;20060;-76
2022/12/10 07:43:53;;;;;;;7.32;5.15;;;;;;;10.31;78.26;98820.75;5014345;28;20096;-75
2022/12/10 07:46:23;;;;;;;6.97;4.72;;;;;;;10.31;78.15;98820.75;5014254;28;20045;-76
2022/12/10 07:48:52;;;;;;;8.23;5.15;;;;;;;10.30;78.06;98832.38;5014310;28;20078;-75
2022/12/10 07:51:22;;;;;;;7.40;4.90;;;;;;;10.31;78.09;98834.06;5014171;28;20057;-75
2022/12/10 07:53:54;;;;;;;6.65;4.90;;;;;;;10.30;77.98;98835.88;4995984;28;20131;-75
2022/12/10 07:56:23;;;;;;;6.93;4.50;;;;;;;10.30;78.18;98843.88;5014010;28;20053;-75
2022/12/10 07:58:51;;;;;;;8.25;5.32;;;;;;;10.30;78.04;98849.22;5013741;28;20042;-76
2022/12/10 08:01:24;;;;;;;8.18;5.47;;;;;;;10.30;78.13;98857.22;5014047;28;20049;-77
2022/12/10 08:03:56;;;;;;;7.33;4.90;;;;;;;10.28;78.23;98853.81;5014913;28;20381;-77
2022/12/10 08:06:25;;;;;;;7.88;5.63;;;;;;;10.28;78.18;98852.97;5014273;28;20292;-77
2022/12/10 08:08:55;;;;;;;8.48;5.50;;;;;;;10.29;78.02;98842.19;5012939;28;20057;-77
2022/12/10 08:11:23;;;;;;;8.63;5.78;;;;;;;10.29;78.06;98826.19;5013765;28;20046;-75
2022/12/10 08:13:52;;;;;;;8.10;4.93;;;;;;;10.31;78.17;98842.06;5013734;28;20053;-76
2022/12/10 08:16:26;;;;;;;8.60;6.05;;;;;;;10.30;78.06;98840.38;5002302;28;20481;-76
2022/12/10 08:18:55;;;;;;;8.15;5.55;;;;;;;10.29;78.22;98838.69;4993809;28;20062;-76
2022/12/10 08:21:26;;;;;;;9.40;5.85;;;;;;;10.30;78.16;98846.53;4994151;28;20056;-75
2022/12/10 08:23:56;;;;;;;8.45;5.45;;;;;;;10.27;78.15;98833.47;4994370;28;20038;-75
2022/12/10 08:26:26;;;;;;;7.68;4.93;;;;;;;10.30;78.16;98835.88;4994123;28;20050;-75
2022/12/10 08:28:55;;;;;;;7.55;5.15;;;;;;;10.30;78.07;98830.56;4993744;28;20481;-76
2022/12/10 08:31:25;;;;;;;8.45;5.65;;;;;;;10.30;78.07;98835.88;4993829;28;20042;-75
2022/12/10 08:33:53;;;;;;;8.38;5.57;;;;;;;10.30;78.05;98830.56;4983633;28;20061;-76
2022/12/10 08:36:22;;;;;;;8.98;5.78;;;;;;;10.29;78.19;98825.34;4996211;28;20054;-76
2022/12/10 08:38:50;;;;;;;8.90;5.78;;;;;;;10.29;78.20;98818.22;5014030;28;20124;-75
2022/12/10 08:41:22;;;;;;;9.25;5.75;;;;;;;10.27;78.15;98822.81;5013337;28;20054;-76
2022/12/10 08:43:52;;;;;;;9.50;5.28;;;;;;;10.30;78.05;98825.22;4996312;28;20085;-76
2022/12/10 08:46:20;;;;;;;8.45;5.40;;;;;;;10.31;78.15;98821.59;5010922;28;20445;-76
2022/12/10 08:48:49;;;;;;;8.15;5.13;;;;;;;10.30;78.14;98825.22;5013421;28;20129;-75
2022/12/10 08:51:19;;;;;;;8.00;5.43;;;;;;;10.31;78.06;98839.41;4996198;28;20400;-76
2022/12/10 08:53:48;;;;;;;7.45;4.90;;;;;;;10.38;78.89;98842.41;5013425;28;20096;-75
2022/12/10 08:56:16;;;;;;;10.80;5.10;;;;;;;10.52;83.01;98844.81;5015436;28;20497;-77
2022/12/10 08:58:46;;;;;;;11.52;5.25;;;;;;;10.68;84.60;98845.22;5014671;28;20046;-77
2022/12/10 09:01:16;;;;;;;11.98;5.07;;;;;;;10.78;84.89;98846.16;5013360;28;20104;-76
2022/12/10 09:03:44;;;;;;;11.90;5.47;;;;;;;10.81;84.33;98847.75;5013157;28;20042;-77
2022/12/10 09:06:15;;;;;;;9.55;5.40;;;;;;;10.78;82.67;98858.66;5013410;28;20071;-77
2022/12/10 09:08:44;;;;;;;9.73;5.30;;;;;;;10.76;81.25;98855.25;5013258;28;20553;-77
2022/12/10 09:11:14;;;;;;;8.93;5.10;;;;;;;10.74;81.06;98850.06;5013492;28;20046;-75
2022/12/10 09:13:43;;;;;;;10.10;4.65;;;;;;;10.71;80.59;98854.78;5013247;28;20069;-76
2022/12/10 09:16:13;;;;;;;11.18;4.88;;;;;;;10.65;80.49;98856.16;5013652;28;20481;-76
2022/12/10 09:18:44;;;;;;;8.50;4.75;;;;;;;10.67;80.13;98864.03;5013472;28;20141;-78
2022/12/10 09:21:14;;;;;;;9.48;4.78;;;;;;;10.63;80.14;98868.78;5017257;28;20050;-78
2022/12/10 09:23:44;;;;;;;7.50;4.93;;;;;;;10.61;80.21;98854.69;5017159;28;20046;-78
2022/12/10 09:26:14;;;;;;;9.38;4.72;;;;;;;10.58;80.12;98850.47;5010460;28;20065;-78
2022/12/10 09:28:43;;;;;;;9.10;5.38;;;;;;;10.59;79.93;98846.81;5011885;28;20045;-76
2022/12/10 09:31:14;;;;;;;11.23;4.90;;;;;;;10.57;80.02;98838.13;4996971;28;20101;-78
2022/12/10 09:33:49;;;;;;;12.20;5.43;;;;;;;10.56;79.77;98840.91;4997272;28;20105;-78
2022/12/10 09:36:18;;;;;;;8.25;4.85;;;;;;;10.58;80.02;98854.97;5004705;28;20046;-79
2022/12/10 09:38:47;;;;;;;11.52;6.80;;;;;;;10.58;79.63;98847.81;5016561;28;20052;-78
2022/12/10 09:41:33;;;;;;;8.55;5.53;;;;;;;10.58;79.42;98854.97;5016314;28;20112;-78
2022/12/10 09:44:07;;;;;;;10.73;5.07;;;;;;;10.58;79.37;98844.28;4998829;28;20124;-78
2022/12/10 09:46:48;;;;;;;12.23;5.22;;;;;;;10.58;79.41;98822.97;5016436;28;20081;-77
2022/12/10 09:49:26;;;;;;;8.93;4.90;;;;;;;10.58;79.72;98822.97;5016755;28;20142;-77
2022/12/10 09:51:58;;;;;;;10.93;5.10;;;;;;;10.58;79.66;98825.63;5016535;28;20042;-79
2022/12/10 09:54:30;;;;;;;9.60;5.05;;;;;;;10.59;79.47;98822.00;5017568;28;20049;-78
2022/12/10 09:57:01;;;;;;;9.60;5.03;;;;;;;10.59;79.39;98822.00;5015990;28;20120;-81
2022/12/10 09:59:33;;;;;;;8.80;5.03;;;;;;;10.59;79.67;98819.31;5016424;28;20052;-77
2022/12/10 10:02:17;;;;;;;9.48;5.13;;;;;;;10.59;79.67;98811.31;5016210;28;20050;-78
2022/12/10 10:04:45;;;;;;;13.23;5.50;;;;;;;10.61;80.01;98806.69;5016034;28;20041;-78
2022/12/10 10:07:20;;;;;;;12.65;5.38;;;;;;;10.60;80.10;98799.69;5016001;28;20046;-79
2022/12/10 10:09:48;;;;;;;12.23;5.47;;;;;;;10.68;80.96;98802.56;5016312;28;20042;-78
2022/12/10 10:12:17;;;;;;;14.57;6.53;;;;;;;10.71;80.84;98791.66;5016045;28;20042;-78
2022/12/10 10:14:45;;;;;;;12.23;6.18;;;;;;;10.71;80.45;98789.00;5015637;28;20493;-78
2022/12/10 10:17:22;;;;;;;13.57;5.80;;;;;;;10.73;79.89;98791.53;5015535;28;20515;-78
2022/12/10 10:19:57;;;;;;;14.93;5.07;;;;;;;10.73;80.52;98789.69;5015723;28;20507;-78
2022/12/10 10:22:26;;;;;;;12.65;5.13;;;;;;;10.74;80.54;98799.41;5015660;28;20056;-78
2022/12/10 10:24:56;;;;;;;13.70;5.32;;;;;;;10.72;80.27;98801.34;5015364;28;20141;-77
2022/12/10 10:27:27;;;;;;;11.60;5.53;;;;;;;10.72;80.16;98787.16;5015622;28;20050;-78
2022/12/10 10:29:57;;;;;;;11.02;4.93;;;;;;;10.72;80.34;98796.00;5015539;28;20062;-78
2022/12/10 10:32:47;;;;;;;11.65;4.90;;;;;;;10.73;80.31;98799.53;5014512;28;20042;-77
2022/12/10 10:35:23;;;;;;;10.23;4.80;;;;;;;10.72;80.45;98796.00;4998254;28;20050;-78
2022/12/10 10:37:57;;;;;;;10.43;5.15;;;;;;;10.72;80.28;98789.84;5015655;28;20048;-79
2022/12/10 10:40:30;;;;;;;13.77;5.80;;;;;;;10.72;80.44;98788.00;5008474;28;20080;-77
2022/12/10 10:43:01;;;;;;;11.85;5.60;;;;;;;10.73;81.27;98792.38;5010061;28;20117;-77
2022/12/10 10:45:36;;;;;;;28.75;5.97;;;;;;;10.75;80.76;98797.56;4988787;28;20057;-77
2022/12/10 10:48:13;;;;;;;11.80;5.32;;;;;;;10.72;81.19;98797.84;4994886;28;20050;-77
2022/12/10 10:50:45;;;;;;;12.55;5.78;;;;;;;10.77;81.34;98801.78;4978768;28;20398;-78
2022/12/10 10:53:29;;;;;;;12.35;5.72;;;;;;;10.82;81.11;98804.09;4997767;28;20046;-80
2022/12/10 10:56:05;;;;;;;12.38;5.80;;;;;;;10.89;81.04;98802.56;4998162;28;20051;-78
2022/12/10 10:58:36;;;;;;;12.85;5.60;;;;;;;10.92;80.06;98794.34;4995762;28;20504;-77
2022/12/10 11:01:07;;;;;;;127.30;10.63;;;;;;;10.96;82.13;98809.09;5006726;28;20077;-77
2022/12/10 11:03:46;;;;;;;23.15;5.70;;;;;;;11.15;86.42;98800.38;5014642;28;20048;-78
2022/12/10 11:06:15;;;;;;;19.42;5.57;;;;;;;11.24;85.91;98793.41;5010961;28;20037;-79
2022/12/10 11:08:47;;;;;;;14.85;4.97;;;;;;;11.25;85.19;98787.09;5011550;28;20481;-77
2022/12/10 11:11:20;;;;;;;19.70;5.57;;;;;;;11.23;83.95;98781.88;5013572;28;20054;-81
2022/12/10 11:13:49;;;;;;;22.30;5.85;;;;;;;11.21;83.32;98775.84;5013618;28;20547;-79
2022/12/10 11:16:20;;;;;;;15.60;6.10;;;;;;;11.18;83.30;98774.25;5006873;28;20096;-81
2022/12/10 11:19:01;;;;;;;19.92;5.30;;;;;;;11.41;88.90;98777.63;5013726;28;20505;-79
2022/12/10 11:21:32;;;;;;;17.98;5.68;;;;;;;11.56;89.75;98771.91;4996087;28;20046;-77
2022/12/10 11:24:04;;;;;;;14.23;5.38;;;;;;;11.56;89.20;98771.91;5014183;28;20046;-77
2022/12/10 11:26:54;;;;;;;19.00;5.22;;;;;;;11.54;87.05;98768.53;5010388;28;20068;-78
2022/12/10 11:29:43;;;;;;;22.58;5.90;;;;;;;11.56;87.57;98763.91;5013924;28;20125;-79
2022/12/10 11:32:24;;;;;;;18.83;6.60;;;;;;;11.53;87.04;98753.50;5011412;28;20117;-77
2022/12/10 11:35:06;;;;;;;13.93;5.88;;;;;;;11.52;85.46;98757.16;5012958;28;20137;-77
2022/12/10 11:37:39;;;;;;;16.55;5.82;;;;;;;11.49;84.79;98746.75;4993918;28;20046;-77
2022/12/10 11:40:27;;;;;;;16.45;6.10;;;;;;;11.43;84.20;98740.97;5011229;28;20046;-78
2022/12/10 11:43:08;;;;;;;16.02;5.70;;;;;;;11.39;83.84;98742.22;5010798;28;20132;-77
2022/12/10 11:45:53;;;;;;;21.15;6.90;;;;;;;11.38;83.71;98734.31;5013140;28;20046;-77
2022/12/10 11:48:34;;;;;;;14.95;6.28;;;;;;;11.31;83.60;98723.34;5013310;28;20072;-77
2022/12/10 11:51:18;;;;;;;15.02;6.45;;;;;;;11.31;83.10;98736.69;5013061;28;20104;-78
2022/12/10 11:54:13;;;;;;;12.75;6.03;;;;;;;11.28;83.36;98720.94;5013200;28;20076;-79
2022/12/10 11:56:45;;;;;;;18.42;6.95;;;;;;;11.25;82.63;98710.53;5012338;28;20038;-78
2022/12/10 11:59:21;;;;;;;12.82;6.28;;;;;;;11.24;83.08;98697.31;5012639;28;20034;-77
2022/12/10 12:02:13;;;;;;;14.45;6.45;;;;;;;11.23;82.63;98699.16;5012267;28;20049;-77